EA1FPN
43.32.39N 005.42.17W
IN73DM aprs.fi
zuletzt gehoert:
2022-10-03T07:30:57Z
zuerst gehoert:
2022-08-04T22:30:05Z

APRS Gijón/Xixón [IN73DM], 2 Stunde(n), EA1FPN [09:47:57, 0s].
EB1TK 43.32.22N 005.42.32WIN73DM 0.293km 269°W07:40:16ZWind 117°/007kn, Böen bis 012kn, Temp 17.22c, Regen 0.0mm, letzte 24h 0.0mm, seit 0h 0.0mm, Baro 1025.5h, Hum: 90%(3EB1TK-13)
EA1FPN 43.32.39N 005.42.17WIN73DM 0.303km 342°NNW07:30:57ZMMDVM MMDVM HS Hat 439.8750/439.8750 CC1
LEEL 43.32.98N 005.41.71WIN73DN 1.474km 20°NNE07:30:04ZHelipuerto de El Musel: LEAS 030630Z 11003KT 080V170 9999 SCT014 SCT060 15/14 Q1022 NOSIG=
EA1FFA 43.31.53N 005.40.64WIN73DM 2.348km 123°ESE07:31:17ZMMDVM MMDVM HS Hat 438.8000/438.8000 CC1(3EA1FFA-1)
EA1IEJ 43.31.83N 005.40.22WIN73DM 2.624km 107°ESE07:31:43ZMMDVM MMDVM HS Hat 438.8500/438.8500 CC6(3EA1IEJ-1)
MMDVM DMO 222.3400/222.3400 CC1(2EA1IEJ-11)
EA4ACU 43.29.56N 005.38.92WIN73EL 6.522km 139°SE07:31:26ZMMDVM MMDVM HS Hat 432.7000/432.7000 CC1(3EA4ACU-1)
ED1ZAE 43.27.97N 005.40.54WIN73DL 8.154km 165°SSE07:42:14ZWIDE3-3 ESAS3-3 IN73DL WWW.EA1URG.ORG(3ED1ZAE-3)
2m Voice 145.5875 -0.600 Mhz(2ED1ZAE-C)
EB1GEM 43.30.00N 005.36.07WIN73EM 9.093km 117°ESE07:46:27ZWX3in1Plus2.0 U=13.3V,T=??.?C/??.?F(3EB1GEM-3)
ED1ZAS 43.27.52N 005.40.17WIN73DL 9.091km 163°SSE07:30:07ZRD985 438.2250/430.6250 CC1
EA1IPU 43.26.21N 005.46.62WIN73CK 12.691km 209°SSW07:30:54ZMMDVM MMDVM HS Hat 439.8000/439.8000 CC1(3EA1IPU-1)
LEGM 43.26.15N 005.49.84WIN73CK 15.326km 223°SW07:30:03ZHelipuerto de La Morgal (123.500MHz): LEAS 030630Z 11003KT 080V170 9999 SCT014 SCT060 15/14 Q1022 NOSIG=
LEMR 43.25.83N 005.49.60WIN73CK 15.579km 220°SW07:30:03ZAerodromo de la Morgal (123.500MHz): LEAS 030630Z 11003KT 080V170 9999 SCT014 SCT060 15/14 Q1022 NOSIG=
EA1ABW 43.24.77N 005.47.77WIN73CJ 15.782km 209°SSW07:30:41ZMMDVM MMDVM HS Hat 439.8250/439.8250 CC1(3EA1ABW-2)
EA1AHA 43.32.72N 005.54.38WIN73BN 16.517km 273°W07:30:59ZWind 000°/000kn, Böen bis 001kn, Temp 16.11c, Regen 0.0mm, letzte 24h 0.0mm, seit 0h 0.0mm, Baro 1024.1h, Hum: 89%(3EA1AHA-13)
EA1JW 43.31.35N 005.28.83WIN73GM 17.905km 95°E07:31:47ZMMDVM MMDVM HS Hat 436.5000/436.5000 CC1(3EA1JW-3)
EC1AE 43.22.66N 005.47.76WIN73CJ 19.304km 203°SSW07:20:26Z`_%(3EC1AE-9)
ED1ZAY 43.29.47N 005.56.54WIN73AL 20.074km 255°WSW07:30:09ZRD625 438.3000/430.7000 CC1
LEHU 43.22.63N 005.49.57WIN73CJ 20.442km 210°SSW07:30:03ZHelipuerto del HUCA: LEAS 030630Z 11003KT 080V170 9999 SCT014 SCT060 15/14 Q1022 NOSIG=
EA1FLQ 43.22.00N 005.36.35WIN73EI 20.476km 158°SSE07:31:23ZMMDVM DVMega 430.9750/430.9750 CC1
EA1FHR 43.28.72N 005.26.41WIN73GL 22.058km 107°ESE07:30:45ZMMDVM MMDVM HS Hat 439.1500/439.1500 CC1
EA1HWD 43.28.96N 005.26.30WIN73GL 22.085km 106°ESE07:31:19ZMMDVM MMDVM HS Hat 434.2500/434.2500 CC1
ED1ZAU 43.23.04N 005.52.75WIN73BJ 22.265km 220°SW07:30:08ZRD625 438.5000/430.9000 CC1
EA1JBU 43.21.85N 005.51.13WIN73BI 22.760km 212°SSW07:32:04ZEA1JBU(3EA1JBU-1)
33D00 43.21.63N 005.51.13WIN73BI 23.099km 212°SSW07:01:42Z33-D-00 Protección Civil REMER / Delegación del Gobierno en Asturias
EA1JAY 43.21.54N 005.51.34WIN73BI 23.397km 212°SSW07:00:10ZEA1JAY(3EA1JAY-2)
434.525MHz Nodo TETRA DMO(2EA1JAY-4)
EA1HJA 43.21.47N 005.52.09WIN73BI 24.041km 214°SW07:44:53Z IN73FL WX3IN1+ 2.0 - V=13.2V,TX TEMP=29.6C(3EA1HJA-2)
EA1HJA@URE.ES(2EA1HJA)
EA1L 43.20.37N 005.51.13WIN73BI 25.100km 209°SSW07:45:05Zea1l@ure.es V=12.7V
Wind 182°/000kn, Böen bis 000kn, Temp 17.78c, Regen 0.0mm, letzte 24h 0.0mm, seit 0h 0.0mm, Baro 1021.2h, Hum: 0%(2EA1L-13)
EA1HWX 43.19.28N 005.50.98WIN73BH 26.812km 207°SSW07:31:36ZDMO - UHF 439.7250/431.0000 CC11(3EA1HWX-2)
MMDVM DMO 222.3400/222.3400 CC1(2EA1HWX-10)
EA1IMW 43.14.36N 005.46.93WIN73CF 33.752km 191°S07:31:48ZGRUPO RADIO GALENA (GRG) 430.4500/430.4500 CC1(3EA1IMW-1)
EA1JBE 43.30.90N 005.16.15WIN73IM 34.954km 94°E07:45:02ZGRUPO RADIO GALENA (GRG) 430.4500/430.4500 CC1(3EA1JBE-13)
MAIN QTH http://qrz.com/db/ea1jbe(2EA1JBE-1)
EB1DGC 43.12.60N 005.45.59WIN73CF 36.685km 187°S07:31:02ZMMDVM MMDVM HS Hat 433.4500/433.4500 CC1
EA1JBL 43.12.28N 005.47.42WIN73CE 37.646km 191°S07:31:27Z*Jose*(3EA1JBL-7)
MMDVM DVMega 435.3000/435.3000 CC1(2EA1JBL)
EA1HWA 43.12.00N 005.47.40WIN73CE 38.166km 191°S07:30:39ZMMDVM MMDVM HS Hat 433.4500/433.4500 CC1
EB1IOW 43.28.73N 005.13.75WIN73JL 38.649km 99°E07:00:31ZMMDVM MMDVM HS Hat 430.5000/430.5000 CC1(3EB1IOW-1)
EA1DZR 43.12.88N 005.24.00WIN73HF 43.349km 146°SE07:30:40ZMMDVM DVMega 431.1000/431.1000 CC1(3EA1DZR-1)
MMDVM MMDVM HS Hat 432.2000/432.2000 CC2(2EA1DZR-2)
MMDVM DV ADER 434.3500/434.3500 CC1(2EA1DZR-4)
440 MMDVM Voice 433.10000MHz +0.0000MHz, APRS for DMRGateway(2EA1DZR-D)
EA1RCG 43.09.45N 005.49.78WIN73CD 43.452km 194°SSW07:30:31ZGRUPO RADIO GALENA (GRG) 430.4500/430.4500 CC1(3EA1RCG-3)
ED1ZAD 43.07.90N 005.38.52WIN73ED 45.328km 174°S07:41:48ZED1ZAD-3 APRS Digi/Igate(3ED1ZAD-3)
EC1KV 43.34.01N 006.16.01WIN63UN 45.655km 274°W07:37:08ZALBUERNE(3EC1KV-1)

aprs.pl 5.0.011w DL3EL © 2006-2021 [5792879]